Relevés horaires Schaffen (Belgique)


Relevés horaires à Schaffen - Mercredi 08 Avr. 2026
Heure UTC1 Température [°C] Vent [km/h] Hum. [%] Pres.4 [hPa] Visi. [Km] Nébu. [octa] Préc.5 [mm] Cond.
2m. Res. Ros. Dir.2 Vit. Moy. Raf.3
23:00 13.1 13.1 0.7 NNO 1.9 -- 3.7 43 1021.8(-0.6/3h) >70 -- -- --
22:00 13.4 13.4 1.0 NE 3.7 -- 5.6 43 1022.2(-0.2/3h) >70 -- -- --
21:00 14.7 14.7 1.6 ENE 3.7 -- 7.4 41 1022.3(0.2/3h) >70 -- -- --
20:00 16.7 16.7 1.0 ENE 3.7 -- 5.6 35 1022.6(0.4/3h) >70 -- -- --
19:00 17.6 17.6 1.1 E 3.7 -- 7.4 33 1022.5(0.1/3h) >70 -- -- --
18:00 19.2 19.2 1.6 ENE 5.6 -- 9.3 31 1022.1(-0.5/3h) >70 -- -- --
17:00 20.7 20.7 2.2 E 3.7 -- 9.3 29 1022(-1.0/3h) >70 -- -- --
16:00 21.9 21.9 1.3 NE 5.6 -- 9.3 26 1022.2(-1.4/3h) >70 -- -- --
15:00 22.1 22.1 1.8 NE 3.7 -- 9.3 26 1022.6(-1.6/3h) >70 -- -- --
14:00 21.7 21.7 1.6 E 3.7 -- 9.3 26 1023(-1.7/3h) 20 3/8 -- --
13:00 20.5 20.5 1.3 NNO 1.9 -- 7.4 28 1023.7(-1.5/3h) 20 3/8 -- --
12:00 20.7 20.7 2.5 NNO 1.9 -- 7.4 30 1024.2(-0.9/3h) 20 3/8 -- --
11:00 18.9 18.9 1.4 NNO 1.9 -- 5.6 31 1024.7(-0.3/3h) 20 0/8 -- --
10:00 17.8 17.8 -0.2 NNO 1.9 -- 3.7 30 1025.2(0.3/3h) 20 0/8 -- --
09:00 16.0 16.0 1.6 NNO 1.9 -- 5.6 38 1025.2(0.4/3h) 20 0/8 -- --
08:00 13.1 13.1 1.6 SE 3.7 -- 5.6 45 1025.2(0.1/3h) >70 -- -- --
07:00 9.9 9.9 1.8 NNO 1.9 -- 5.6 57 1025.2(0.4/3h) >70 -- -- --
06:00 7.0 7.0 0.3 NNO 1.9 -- 5.6 62 1025(0.1/3h) >70 -- -- --
05:00 6.5 6.5 -1.0 E 3.7 -- 5.6 59 1025.2(0.2/3h) >70 -- -- --
04:00 7.1 7.1 -1.6 NNO 1.9 -- 5.6 54 1024.7(-0.3/3h) >70 -- -- --
03:00 7.9 7.9 -1.8 E 3.7 -- 5.6 50 1024.9(-0.1/3h) >70 -- -- --
02:00 8.2 8.2 -1.7 NNO 1.9 -- 5.6 50 1024.9(-0.1/3h) >70 -- -- --
01:00 9.0 9.0 -1.9 NNO 1.9 -- 5.6 46 1025(0.2/3h) >70 -- -- --
00:00 9.3 9.3 -2.0 ENE 3.7 -- 9.3 45 1025(0.1/3h) >70 -- -- --

1 Coordinated Universal Time. Actuellement il est 10:00 locale et 08:00 UTC.

2 Le vent souffle depuis la direction indiquée vers la direction oposée.

3 Les rafales max. sont disponible 40 min après l'heure du relevé.

4 Pour les stations d'altitude (plus de 600m) le géopotentiel du niveau le plus proche de la pression obligatoire est indiqué.

5 Les stations disposant d'un diffuseur peuvent indiquer "trace". Cela signifie que des précipitations ont touchés le sol mais que la quantité est inférieure à 0.1 mm.

Récapitulatif de la journée
Température [°C] Vent [km/h] Ensoleillement4 [h] Precipitations totale5 [mm] Pression [Hpa]
Min1 Max.2 Moy.3 Max. Min Max.
5.5 22.6 0 9.3 0 h 0 min 0 1021.8 1025.2

1 Température minimale relevée entre 18:00 UTC la veille et 18:00 UTC le jour donné.

2 Température maximale relevée entre 06:00 UTC le jour donné et 06:00 UTC le lendemain.

3 Vent moyen de la journée basé sur les relevés horaires.

4 Ensoleillement en heures relevé entre 06:00 UTC la veille et 06:00 UTC le jour donné.

5 Précipitations totales tombées entre 06:00 UTC la jour donné et 06:00 UTC le lendemain.

Graphiques horaires